Time;durP1;ratioP1;P1;durP2;ratioP2;P2;SDS_P1;SDS_P2;PMS_P1;PMS_P2;Temp;Humidity;BMP_temperature;BMP_pressure;BME280_temperature;BME280_humidity;BME280_pressure;Samples;Min_cycle;Max_cycle;Signal;HPM_P1;HPM_P2
2022/01/31 00:01:34;;;;;;;;;;;;;;;;;;5054438;28;20038;-48
2022/01/31 00:03:59;;;;;;;;;;;;;;;;;;5054428;28;20058;-53
2022/01/31 00:06:24;;;;;;;;;;;;;;;;;;5054419;28;20333;-47
2022/01/31 00:08:50;;;;;;;;;;;;;;;;;;5054391;28;19913;-50
2022/01/31 00:11:15;;;;;;;;;;;;;;;;;;5054557;28;19912;-48
2022/01/31 00:13:45;;;;;;;;;;;;;;;;;;5054419;28;20016;-47
2022/01/31 00:16:14;;;;;;;;;;;;;;;;;;5054340;28;19905;-50
2022/01/31 00:18:40;;;;;;;;;;;;;;;;;;5054323;28;20326;-48
2022/01/31 00:21:05;;;;;;;;;;;;;;;;;;5054121;28;19940;-49
2022/01/31 00:23:31;;;;;;;;;;;;;;;;;;5054298;28;19912;-48
2022/01/31 00:25:56;;;;;;;;;;;;;;;;;;5054025;28;20292;-50
2022/01/31 00:28:21;;;;;;;;;;;;;;;;;;5054117;28;19912;-49
2022/01/31 00:30:46;;;;;;;;;;;;;;;;;;5054211;28;19916;-47
2022/01/31 00:33:11;;;;;;;;;;;;;;;;;;5054160;28;19912;-52
2022/01/31 00:35:36;;;;;;;;;;;;;;;;;;5054107;28;19911;-49
2022/01/31 00:38:01;;;;;;;;;;;;;;;;;;5054110;28;20340;-52
2022/01/31 00:40:26;;;;;;;;;;;;;;;;;;5054173;28;19912;-49
2022/01/31 00:42:52;;;;;;;;;;;;;;;;;;5054108;28;20267;-49
2022/01/31 00:45:26;;;;;;;;;;;;;;;;;;5054260;28;20280;-50
2022/01/31 00:48:00;;;;;;;;;;;;;;;;;;5054005;28;20454;-49
2022/01/31 00:50:25;;;;;;;;;;;;;;;;;;5054020;28;19955;-49
2022/01/31 00:52:50;;;;;;;;;;;;;;;;;;5056393;28;19912;-49
2022/01/31 00:55:16;;;;;;;;;;;;;;;;;;5057832;28;19911;-51
2022/01/31 00:57:41;;;;;;;;;;;;;;;;;;5057705;28;19975;-49
2022/01/31 01:00:06;;;;;;;;;;;;;;;;;;5057700;28;19931;-49
2022/01/31 01:02:32;;;;;;;;;;;;;;;;;;5057534;28;19901;-49
2022/01/31 01:04:57;;;;;;;;;;;;;;;;;;5057572;28;19904;-50
2022/01/31 01:07:22;;;;;;;;;;;;;;;;;;5057467;28;20253;-49
2022/01/31 01:09:47;;;;;;;;;;;;;;;;;;5057474;28;20306;-50
2022/01/31 01:12:12;;;;;;;;;;;;;;;;;;5057418;28;19911;-50
2022/01/31 01:14:37;;;;;;;;;;;;;;;;;;5057459;28;19905;-49
2022/01/31 01:17:03;;;;;;;;;;;;;;;;;;5057350;28;20004;-52
2022/01/31 01:19:28;;;;;;;;;;;;;;;;;;5057241;28;20345;-49
2022/01/31 01:21:53;;;;;;;;;;;;;;;;;;5057057;28;19905;-50
2022/01/31 01:24:18;;;;;;;;;;;;;;;;;;5057048;28;20341;-50
2022/01/31 01:26:43;;;;;;;;;;;;;;;;;;5057278;28;19995;-51
2022/01/31 01:29:08;;;;;;;;;;;;;;;;;;5057399;28;20402;-49
2022/01/31 01:31:33;;;;;;;;;;;;;;;;;;5057059;28;19959;-49
2022/01/31 01:33:59;;;;;;;;;;;;;;;;;;5057099;28;19971;-47
2022/01/31 01:36:24;;;;;;;;;;;;;;;;;;5057008;28;20328;-49
2022/01/31 01:38:49;;;;;;;;;;;;;;;;;;5056925;28;19928;-49
2022/01/31 01:41:14;;;;;;;;;;;;;;;;;;5056979;28;19905;-49
2022/01/31 01:43:39;;;;;;;;;;;;;;;;;;5056742;28;19904;-48
2022/01/31 01:46:04;;;;;;;;;;;;;;;;;;5056894;28;19904;-49
2022/01/31 01:48:30;;;;;;;;;;;;;;;;;;5056768;28;20431;-49
2022/01/31 01:50:55;;;;;;;;;;;;;;;;;;5056557;28;19999;-49
2022/01/31 01:53:20;;;;;;;;;;;;;;;;;;5056791;28;19912;-48
2022/01/31 01:55:46;;;;;;;;;;;;;;;;;;5056611;28;19905;-49
2022/01/31 01:58:15;;;;;;;;;;;;;;;;;;5056705;28;19905;-49
2022/01/31 02:00:53;;;;;;;;;;;;;;;;;;5056567;28;20029;-49
2022/01/31 02:03:19;;;;;;;;;;;;;;;;;;5055460;28;19912;-50
2022/01/31 02:05:44;;;;;;;;;;;;;;;;;;5056461;28;19995;-50
2022/01/31 02:08:09;;;;;;;;;;;;;;;;;;5056360;28;19908;-51
2022/01/31 02:10:34;;;;;;;;;;;;;;;;;;5056269;28;19909;-51
2022/01/31 02:12:59;;;;;;;;;;;;;;;;;;5056277;28;19904;-48
2022/01/31 02:15:26;;;;;;;;;;;;;;;;;;5056204;28;20304;-49
2022/01/31 02:17:51;;;;;;;;;;;;;;;;;;5056161;28;19904;-48
2022/01/31 02:20:16;;;;;;;;;;;;;;;;;;5056104;28;20008;-51
2022/01/31 02:22:41;;;;;;;;;;;;;;;;;;5056155;28;19936;-49
2022/01/31 02:25:06;;;;;;;;;;;;;;;;;;5055876;28;19970;-48
2022/01/31 02:27:31;;;;;;;;;;;;;;;;;;5055882;28;19905;-48
2022/01/31 02:29:56;;;;;;;;;;;;;;;;;;5055800;28;19991;-51
2022/01/31 02:32:22;;;;;;;;;;;;;;;;;;5055911;28;19995;-48
2022/01/31 02:34:47;;;;;;;;;;;;;;;;;;5055888;28;19970;-49
2022/01/31 02:37:12;;;;;;;;;;;;;;;;;;5055873;28;19904;-49
2022/01/31 02:39:37;;;;;;;;;;;;;;;;;;5055664;28;20344;-49
2022/01/31 02:42:02;;;;;;;;;;;;;;;;;;5055707;28;20275;-48
2022/01/31 02:44:28;;;;;;;;;;;;;;;;;;5055719;28;19928;-49
2022/01/31 02:46:54;;;;;;;;;;;;;;;;;;5055646;28;19968;-50
2022/01/31 02:49:22;;;;;;;;;;;;;;;;;;5055509;28;19947;-49
2022/01/31 02:51:49;;;;;;;;;;;;;;;;;;5055423;28;19912;-48
2022/01/31 02:54:14;;;;;;;;;;;;;;;;;;5055519;28;19912;-50
2022/01/31 02:56:40;;;;;;;;;;;;;;;;;;5055327;28;19905;-48
2022/01/31 02:59:05;;;;;;;;;;;;;;;;;;5055384;28;19927;-49
2022/01/31 03:01:31;;;;;;;;;;;;;;;;;;5055406;28;19905;-48
2022/01/31 03:03:56;;;;;;;;;;;;;;;;;;5055458;28;20274;-51
2022/01/31 03:06:21;;;;;;;;;;;;;;;;;;5055297;28;19905;-48
2022/01/31 03:08:46;;;;;;;;;;;;;;;;;;5055276;28;19950;-51
2022/01/31 03:11:12;;;;;;;;;;;;;;;;;;5055243;28;19908;-51
2022/01/31 03:13:37;;;;;;;;;;;;;;;;;;5055098;28;19912;-48
2022/01/31 03:16:02;;;;;;;;;;;;;;;;;;5054849;28;20374;-52
2022/01/31 03:18:27;;;;;;;;;;;;;;;;;;5055103;28;19912;-48
2022/01/31 03:20:52;;;;;;;;;;;;;;;;;;5055038;28;19908;-48
2022/01/31 03:23:19;;;;;;;;;;;;;;;;;;5054933;28;19999;-48
2022/01/31 03:25:44;;;;;;;;;;;;;;;;;;5054724;28;19967;-48
2022/01/31 03:28:09;;;;;;;;;;;;;;;;;;5037029;28;19904;-48
2022/01/31 03:30:34;;;;;;;;;;;;;;;;;;5054883;28;19909;-48
2022/01/31 03:32:59;;;;;;;;;;;;;;;;;;5055126;28;19905;-48
2022/01/31 03:35:25;;;;;;;;;;;;;;;;;;5054866;28;20273;-48
2022/01/31 03:37:50;;;;;;;;;;;;;;;;;;5054837;28;19912;-49
2022/01/31 03:40:15;;;;;;;;;;;;;;;;;;5054849;28;19904;-48
2022/01/31 03:42:40;;;;;;;;;;;;;;;;;;5054725;28;19955;-50
2022/01/31 03:45:05;;;;;;;;;;;;;;;;;;5054622;28;19904;-48
2022/01/31 03:47:30;;;;;;;;;;;;;;;;;;5054631;28;19907;-49
2022/01/31 03:49:55;;;;;;;;;;;;;;;;;;5054477;28;19915;-49
2022/01/31 03:52:21;;;;;;;;;;;;;;;;;;5054664;28;19904;-47
2022/01/31 03:54:46;;;;;;;;;;;;;;;;;;5054525;28;20306;-49
2022/01/31 03:57:11;;;;;;;;;;;;;;;;;;5054626;28;20373;-49
2022/01/31 03:59:36;;;;;;;;;;;;;;;;;;5054554;28;19996;-48
2022/01/31 04:02:04;;;;;;;;;;;;;;;;;;5054440;28;20279;-48
2022/01/31 04:04:29;;;;;;;;;;;;;;;;;;5054609;28;19963;-48
2022/01/31 04:06:54;;;;;;;;;;;;;;;;;;5054320;28;19900;-47
2022/01/31 04:09:19;;;;;;;;;;;;;;;;;;5054259;28;19912;-48
2022/01/31 04:11:45;;;;;;;;;;;;;;;;;;5053317;28;19913;-49
2022/01/31 04:14:10;;;;;;;;;;;;;;;;;;5054332;28;19936;-47
2022/01/31 04:16:35;;;;;;;;;;;;;;;;;;5054295;28;19905;-50
2022/01/31 04:19:00;;;;;;;;;;;;;;;;;;5054184;28;19952;-48
2022/01/31 04:21:26;;;;;;;;;;;;;;;;;;5054266;28;20348;-48
2022/01/31 04:23:51;;;;;;;;;;;;;;;;;;5054100;28;20366;-47
2022/01/31 04:26:16;;;;;;;;;;;;;;;;;;5054007;28;19924;-48
2022/01/31 04:28:47;;;;;;;;;;;;;;;;;;5058087;28;19905;-47
2022/01/31 04:33:46;;;;;;;;;;;;;;;;;;5058249;28;19908;-47
2022/01/31 04:36:14;;;;;;;;;;;;;;;;;;5058235;28;19959;-47
2022/01/31 04:38:39;;;;;;;;;;;;;;;;;;5058291;28;19935;-48
2022/01/31 04:41:04;;;;;;;;;;;;;;;;;;5058273;28;19911;-47
2022/01/31 04:43:29;;;;;;;;;;;;;;;;;;5057951;28;20370;-47
2022/01/31 04:45:56;;;;;;;;;;;;;;;;;;5057961;28;20352;-47
2022/01/31 04:48:21;;;;;;;;;;;;;;;;;;5057954;28;19936;-47
2022/01/31 04:50:46;;;;;;;;;;;;;;;;;;5057937;28;19955;-47
2022/01/31 04:53:12;;;;;;;;;;;;;;;;;;5039971;28;19905;-47
2022/01/31 04:55:37;;;;;;;;;;;;;;;;;;5057686;28;19912;-47
2022/01/31 04:58:02;;;;;;;;;;;;;;;;;;5057892;28;19912;-48
2022/01/31 05:00:27;;;;;;;;;;;;;;;;;;5057782;28;20319;-47
2022/01/31 05:02:53;;;;;;;;;;;;;;;;;;5057554;28;19911;-47
2022/01/31 05:05:18;;;;;;;;;;;;;;;;;;5057457;28;20007;-48
2022/01/31 05:07:43;;;;;;;;;;;;;;;;;;5057404;28;19915;-47
2022/01/31 05:10:08;;;;;;;;;;;;;;;;;;5053075;28;19955;-48
2022/01/31 05:12:33;;;;;;;;;;;;;;;;;;5057456;28;19908;-47
2022/01/31 05:14:58;;;;;;;;;;;;;;;;;;5057465;28;19905;-47
2022/01/31 05:17:23;;;;;;;;;;;;;;;;;;5057518;28;19908;-48
2022/01/31 05:19:49;;;;;;;;;;;;;;;;;;5039317;28;19908;-47
2022/01/31 05:22:14;;;;;;;;;;;;;;;;;;5057411;28;19905;-48
2022/01/31 05:24:39;;;;;;;;;;;;;;;;;;5057045;28;20327;-48
2022/01/31 05:27:04;;;;;;;;;;;;;;;;;;5057035;28;19987;-47
2022/01/31 05:29:29;;;;;;;;;;;;;;;;;;5057442;28;19905;-49
2022/01/31 05:31:54;;;;;;;;;;;;;;;;;;5056497;28;20043;-47
2022/01/31 05:34:20;;;;;;;;;;;;;;;;;;5057076;28;19904;-47
2022/01/31 05:36:45;;;;;;;;;;;;;;;;;;5056847;28;19931;-47
2022/01/31 05:39:10;;;;;;;;;;;;;;;;;;5057022;28;19959;-50
2022/01/31 05:41:36;;;;;;;;;;;;;;;;;;5056955;28;19905;-48
2022/01/31 05:44:01;;;;;;;;;;;;;;;;;;5056375;28;20273;-50
2022/01/31 05:46:26;;;;;;;;;;;;;;;;;;5056869;28;19904;-47
2022/01/31 05:48:51;;;;;;;;;;;;;;;;;;5056895;28;19971;-47
2022/01/31 05:51:16;;;;;;;;;;;;;;;;;;5056361;28;20425;-47
2022/01/31 05:53:42;;;;;;;;;;;;;;;;;;5056832;28;19980;-49
2022/01/31 05:56:09;;;;;;;;;;;;;;;;;;5057027;28;19912;-49
2022/01/31 05:58:34;;;;;;;;;;;;;;;;;;5056708;28;19905;-52
2022/01/31 06:00:59;;;;;;;;;;;;;;;;;;5055533;28;19909;-50
2022/01/31 06:03:24;;;;;;;;;;;;;;;;;;5056412;28;19905;-48
2022/01/31 06:05:49;;;;;;;;;;;;;;;;;;5056522;28;19905;-51
2022/01/31 06:08:14;;;;;;;;;;;;;;;;;;5056310;28;19904;-50
2022/01/31 06:10:43;;;;;;;;;;;;;;;;;;5056356;28;19909;-51
2022/01/31 06:13:09;;;;;;;;;;;;;;;;;;5056387;28;19905;-47
2022/01/31 06:15:34;;;;;;;;;;;;;;;;;;5056536;28;19912;-49
2022/01/31 06:17:59;;;;;;;;;;;;;;;;;;5056128;28;19904;-50
2022/01/31 06:20:24;;;;;;;;;;;;;;;;;;5056228;28;19904;-49
2022/01/31 06:22:50;;;;;;;;;;;;;;;;;;5056269;28;19908;-50
2022/01/31 06:25:15;;;;;;;;;;;;;;;;;;5055727;28;19924;-48
2022/01/31 06:27:40;;;;;;;;;;;;;;;;;;5054493;28;19909;-51
2022/01/31 06:30:06;;;;;;;;;;;;;;;;;;5046320;28;19916;-50
2022/01/31 06:32:31;;;;;;;;;;;;;;;;;;5047974;28;19913;-48
2022/01/31 06:34:57;;;;;;;;;;;;;;;;;;5045489;28;20420;-50
2022/01/31 06:37:22;;;;;;;;;;;;;;;;;;5049806;28;19909;-51
2022/01/31 06:39:47;;;;;;;;;;;;;;;;;;5052577;28;19913;-49
2022/01/31 06:42:12;;;;;;;;;;;;;;;;;;5045897;28;19913;-52
2022/01/31 06:44:39;;;;;;;;;;;;;;;;;;5045743;28;19913;-49
2022/01/31 06:47:04;;;;;;;;;;;;;;;;;;5041705;28;19923;-49
2022/01/31 06:49:29;;;;;;;;;;;;;;;;;;5042750;28;19916;-49
2022/01/31 06:51:54;;;;;;;;;;;;;;;;;;5035589;28;19921;-50
2022/01/31 06:54:20;;;;;;;;;;;;;;;;;;5039869;28;19909;-51
2022/01/31 06:56:45;;;;;;;;;;;;;;;;;;5038990;28;19908;-50
2022/01/31 06:59:10;;;;;;;;;;;;;;;;;;5037706;28;19943;-50
2022/01/31 07:01:35;;;;;;;;;;;;;;;;;;5013157;28;19916;-48
2022/01/31 07:04:00;;;;;;;;;;;;;;;;;;5019170;28;19924;-48
2022/01/31 07:06:26;;;;;;;;;;;;;;;;;;5007919;28;20395;-50
2022/01/31 07:08:51;;;;;;;;;;;;;;;;;;5029125;28;19917;-50
2022/01/31 07:11:21;;;;;;;;;;;;;;;;;;5008398;28;20448;-52
2022/01/31 07:13:48;;;;;;;;;;;;;;;;;;4998842;28;21180;-50
2022/01/31 07:16:13;;;;;;;;;;;;;;;;;;4965633;28;19917;-48
2022/01/31 07:18:39;;;;;;;;;;;;;;;;;;4965552;28;21876;-50
2022/01/31 07:21:05;;;;;;;;;;;;;;;;;;4941500;28;19946;-50
2022/01/31 07:23:51;;;;;;;;;;;;;;;;;;4899779;28;20564;-51
2022/01/31 07:26:15;;;;;;;;;;;;;;;;;;4817899;28;19971;-53
2022/01/31 07:28:40;;;;;;;;;;;;;;;;;;4769398;28;19920;-52
2022/01/31 07:31:05;;;;;;;;;;;;;;;;;;4799677;28;21542;-49
2022/01/31 07:33:30;;;;;;;;;;;;;;;;;;4871092;28;19924;-49
2022/01/31 07:35:55;;;;;;;;;;;;;;;;;;4906940;28;21554;-50
2022/01/31 07:38:21;;;;;;;;;;;;;;;;;;4924920;28;19917;-49
2022/01/31 07:40:47;;;;;;;;;;;;;;;;;;4941542;28;19917;-47
2022/01/31 07:43:12;;;;;;;;;;;;;;;;;;4919864;28;21704;-50
2022/01/31 07:45:37;;;;;;;;;;;;;;;;;;4937445;28;19952;-50
2022/01/31 07:48:02;;;;;;;;;;;;;;;;;;4946492;28;19973;-51
2022/01/31 07:50:30;;;;;;;;;;;;;;;;;;4934540;28;20822;-49
2022/01/31 07:52:55;;;;;;;;;;;;;;;;;;4914175;28;19916;-51
2022/01/31 07:55:21;;;;;;;;;;;;;;;;;;4908668;28;19917;-49
2022/01/31 07:57:47;;;;;;;;;;;;;;;;;;4894847;28;19950;-49
2022/01/31 08:00:12;;;;;;;;;;;;;;;;;;4865830;28;19916;-48
2022/01/31 08:02:37;;;;;;;;;;;;;;;;;;4825060;28;19916;-50
2022/01/31 08:05:02;;;;;;;;;;;;;;;;;;4792043;28;20789;-51
2022/01/31 08:07:27;;;;;;;;;;;;;;;;;;4672438;28;21627;-50
2022/01/31 08:09:53;;;;;;;;;;;;;;;;;;4600239;28;19917;-49
2022/01/31 08:12:18;;;;;;;;;;;;;;;;;;4731427;28;19917;-52
2022/01/31 08:14:44;;;;;;;;;;;;;;;;;;4752685;28;19917;-52
2022/01/31 08:17:11;;;;;;;;;;;;;;;;;;4778837;28;19972;-52
2022/01/31 08:19:36;;;;;;;;;;;;;;;;;;4811101;28;20119;-51
2022/01/31 08:22:01;;;;;;;;;;;;;;;;;;4813028;28;19920;-50
2022/01/31 08:24:26;;;;;;;;;;;;;;;;;;4796427;28;21446;-53
2022/01/31 08:26:51;;;;;;;;;;;;;;;;;;4808149;28;22321;-51
2022/01/31 08:29:22;;;;;;;;;;;;;;;;;;4811951;28;19922;-52
2022/01/31 08:31:48;;;;;;;;;;;;;;;;;;4819587;28;19925;-53
2022/01/31 08:34:22;;;;;;;;;;;;;;;;;;;;;
2022/01/31 08:36:42;;;;;;;;;;;;;;;;;;4810528;28;19924;-51
2022/01/31 08:39:08;;;;;;;;;;;;;;;;;;4807939;28;19916;-52
2022/01/31 08:41:33;;;;;;;;;;;;;;;;;;4818045;28;19956;-51
2022/01/31 08:43:58;;;;;;;;;;;;;;;;;;4805121;28;19920;-50
2022/01/31 08:46:23;;;;;;;;;;;;;;;;;;4802944;28;24066;-53
2022/01/31 08:48:48;;;;;;;;;;;;;;;;;;4752706;28;21151;-50
2022/01/31 08:51:14;;;;;;;;;;;;;;;;;;4756520;28;19928;-52
2022/01/31 08:53:39;;;;;;;;;;;;;;;;;;4754082;28;19916;-51
2022/01/31 08:56:04;;;;;;;;;;;;;;;;;;4771662;28;20030;-53
2022/01/31 08:58:29;;;;;;;;;;;;;;;;;;4786174;28;19916;-50
2022/01/31 09:01:01;;;;;;;;;;;;;;;;;;4787199;28;19921;-52
2022/01/31 09:06:00;;;;;;;;;;;;;;;;;;4782706;28;21990;-52
2022/01/31 09:08:25;;;;;;;;;;;;;;;;;;4729987;28;19916;-51
2022/01/31 09:10:50;;;;;;;;;;;;;;;;;;4735309;28;20002;-52
2022/01/31 09:13:17;;;;;;;;;;;;;;;;;;4766683;23;19896;-82
2022/01/31 09:15:43;;;;;;;;;;;;;;;;;;4904841;28;20671;-83
2022/01/31 09:18:08;;;;;;;;;;;;;;;;;;4926914;28;19917;-83
2022/01/31 09:20:33;;;;;;;;;;;;;;;;;;4947542;28;19918;-83
2022/01/31 09:22:58;;;;;;;;;;;;;;;;;;4956867;28;19917;-84
2022/01/31 09:25:26;;;;;;;;;;;;;;;;;;4951827;28;21328;-83
2022/01/31 09:27:51;;;;;;;;;;;;;;;;;;4954091;28;19917;-83
2022/01/31 09:30:18;;;;;;;;;;;;;;;;;;4969500;28;20012;-83
2022/01/31 09:32:43;;;;;;;;;;;;;;;;;;4956569;28;20559;-83
2022/01/31 09:35:08;;;;;;;;;;;;;;;;;;4938715;28;19929;-82
2022/01/31 09:37:34;;;;;;;;;;;;;;;;;;4961026;28;21761;-84
2022/01/31 09:40:04;;;;;;;;;;;;;;;;;;4952142;28;19991;-85
2022/01/31 09:42:36;;;;;;;;;;;;;;;;;;4950852;28;19917;-84
2022/01/31 09:50:13;;;;;;;;;;;;;;;;;;4821756;28;20174;-83
2022/01/31 09:52:39;;;;;;;;;;;;;;;;;;4871500;28;20256;-81
2022/01/31 09:55:04;;;;;;;;;;;;;;;;;;4877269;28;21368;-83
2022/01/31 09:57:29;;;;;;;;;;;;;;;;;;4944478;28;20650;-82
2022/01/31 09:59:54;;;;;;;;;;;;;;;;;;4968829;28;20064;-81
2022/01/31 10:02:19;;;;;;;;;;;;;;;;;;4955843;28;19917;-82
2022/01/31 10:04:44;;;;;;;;;;;;;;;;;;4947558;28;19918;-81
2022/01/31 10:07:09;;;;;;;;;;;;;;;;;;4954192;28;21683;-81
2022/01/31 10:09:35;;;;;;;;;;;;;;;;;;4951454;28;21929;-81
2022/01/31 10:12:04;;;;;;;;;;;;;;;;;;4950630;28;20557;-83
2022/01/31 10:17:13;;;;;;;;;;;;;;;;;;4962349;28;20039;-80
2022/01/31 10:19:39;;;;;;;;;;;;;;;;;;4953520;28;19917;-82
2022/01/31 10:22:04;;;;;;;;;;;;;;;;;;4960567;28;19933;-83
2022/01/31 10:24:29;;;;;;;;;;;;;;;;;;4897797;28;21551;-82
2022/01/31 10:26:54;;;;;;;;;;;;;;;;;;4924473;28;21029;-82
2022/01/31 10:29:19;;;;;;;;;;;;;;;;;;4834560;28;19913;-80
2022/01/31 10:31:44;;;;;;;;;;;;;;;;;;4778693;28;19975;-85
2022/01/31 10:34:09;;;;;;;;;;;;;;;;;;4794072;28;21418;-80
2022/01/31 10:36:36;;;;;;;;;;;;;;;;;;4782528;28;19939;-83
2022/01/31 10:39:01;;;;;;;;;;;;;;;;;;4770060;28;19917;-81
2022/01/31 10:44:56;;;;;;;;;;;;;;;;;;4897747;28;20179;-85
2022/01/31 10:52:36;;;;;;;;;;;;;;;;;;4951625;28;20695;-83
2022/01/31 10:55:01;;;;;;;;;;;;;;;;;;4866812;28;20421;-82
2022/01/31 10:57:26;;;;;;;;;;;;;;;;;;4967865;28;19943;-82
2022/01/31 10:59:51;;;;;;;;;;;;;;;;;;4940732;28;19947;-83
2022/01/31 11:02:18;;;;;;;;;;;;;;;;;;4923879;28;20550;-83
2022/01/31 11:04:44;;;;;;;;;;;;;;;;;;4886461;28;19939;-83
2022/01/31 11:07:10;;;;;;;;;;;;;;;;;;4879428;28;19921;-83
2022/01/31 11:09:35;;;;;;;;;;;;;;;;;;4844029;28;20380;-83
2022/01/31 11:12:00;;;;;;;;;;;;;;;;;;4931702;28;19965;-84
2022/01/31 11:14:26;;;;;;;;;;;;;;;;;;4975791;28;19928;-83
2022/01/31 11:16:51;;;;;;;;;;;;;;;;;;4974456;28;20418;-84
2022/01/31 11:19:23;;;;;;;;;;;;;;;;;;4952348;28;19924;-84
2022/01/31 11:21:49;;;;;;;;;;;;;;;;;;4977542;28;20113;-83
2022/01/31 11:24:18;;;;;;;;;;;;;;;;;;4981412;28;19945;-82
2022/01/31 11:26:43;;;;;;;;;;;;;;;;;;4986866;28;19924;-81
2022/01/31 11:29:08;;;;;;;;;;;;;;;;;;4984514;28;19965;-82
2022/01/31 11:31:33;;;;;;;;;;;;;;;;;;4944520;28;21703;-82
2022/01/31 11:33:59;;;;;;;;;;;;;;;;;;4945970;28;22101;-82
2022/01/31 11:36:24;;;;;;;;;;;;;;;;;;4836115;28;19917;-83
2022/01/31 11:38:49;;;;;;;;;;;;;;;;;;4861290;28;20233;-84
2022/01/31 11:41:14;;;;;;;;;;;;;;;;;;4884851;28;19977;-84
2022/01/31 11:43:39;;;;;;;;;;;;;;;;;;4980412;28;20122;-84
2022/01/31 11:46:04;;;;;;;;;;;;;;;;;;4966629;28;19952;-85
2022/01/31 11:48:29;;;;;;;;;;;;;;;;;;4978318;28;19917;-84
2022/01/31 11:50:55;;;;;;;;;;;;;;;;;;4987749;28;20003;-84
2022/01/31 11:53:20;;;;;;;;;;;;;;;;;;4988616;28;19924;-83
2022/01/31 11:55:45;;;;;;;;;;;;;;;;;;4976325;28;20720;-84
2022/01/31 11:58:14;;;;;;;;;;;;;;;;;;4993322;28;19916;-82
2022/01/31 12:00:39;;;;;;;;;;;;;;;;;;4975152;28;19916;-84
2022/01/31 12:03:05;;;;;;;;;;;;;;;;;;4931765;28;19917;-82
2022/01/31 12:05:30;;;;;;;;;;;;;;;;;;4916123;28;19916;-82
2022/01/31 12:07:56;;;;;;;;;;;;;;;;;;4938385;28;19917;-84
2022/01/31 12:10:21;;;;;;;;;;;;;;;;;;4953875;28;19921;-82
2022/01/31 12:15:16;;;;;;;;;;;;;;;;;;4839401;28;19925;-82
2022/01/31 12:21:52;;;;;;;;;;;;;;;;;;4919507;28;19917;-83
2022/01/31 12:23:03;;;;;;;;;;;;;;;;;;4969402;28;19917;-82
2022/01/31 12:25:28;;;;;;;;;;;;;;;;;;4953285;28;20153;-82
2022/01/31 12:27:53;;;;;;;;;;;;;;;;;;4980731;28;19950;-81
2022/01/31 12:30:18;;;;;;;;;;;;;;;;;;4989320;28;19917;-83
2022/01/31 12:32:44;;;;;;;;;;;;;;;;;;4988071;28;19963;-82
2022/01/31 12:35:09;;;;;;;;;;;;;;;;;;5003414;28;19983;-80
2022/01/31 12:37:35;;;;;;;;;;;;;;;;;;5004976;28;19917;-81
2022/01/31 12:40:04;;;;;;;;;;;;;;;;;;5005381;28;19917;-81
2022/01/31 12:45:18;;;;;;;;;;;;;;;;;;4997378;28;19917;-84
2022/01/31 12:47:43;;;;;;;;;;;;;;;;;;4997203;28;19916;-83
2022/01/31 12:50:08;;;;;;;;;;;;;;;;;;4991431;28;22604;-83
2022/01/31 12:52:36;;;;;;;;;;;;;;;;;;4980288;28;21888;-84
2022/01/31 12:55:02;;;;;;;;;;;;;;;;;;4982632;28;19917;-82
2022/01/31 12:57:27;;;;;;;;;;;;;;;;;;4985173;28;19959;-84
2022/01/31 12:59:52;;;;;;;;;;;;;;;;;;5006219;28;20023;-84
2022/01/31 13:02:17;;;;;;;;;;;;;;;;;;4996822;28;19923;-83
2022/01/31 13:04:48;;;;;;;;;;;;;;;;;;5007054;28;20640;-82
2022/01/31 13:07:15;;;;;;;;;;;;;;;;;;5026784;28;19917;-83
2022/01/31 13:09:40;;;;;;;;;;;;;;;;;;5030448;28;19920;-82
2022/01/31 13:12:06;;;;;;;;;;;;;;;;;;5027819;28;19943;-81
2022/01/31 13:14:31;;;;;;;;;;;;;;;;;;5028534;28;19929;-80
2022/01/31 13:17:03;;;;;;;;;;;;;;;;;;5026971;28;20040;-81
2022/01/31 13:19:29;;;;;;;;;;;;;;;;;;5001217;28;19917;-81
2022/01/31 13:21:55;;;;;;;;;;;;;;;;;;5029696;28;19936;-84
2022/01/31 13:24:20;;;;;;;;;;;;;;;;;;5027326;28;19917;-81
2022/01/31 13:26:45;;;;;;;;;;;;;;;;;;5034059;28;19920;-82
2022/01/31 13:29:10;;;;;;;;;;;;;;;;;;5036040;28;19966;-81
2022/01/31 13:31:35;;;;;;;;;;;;;;;;;;5034198;28;19921;-80
2022/01/31 13:34:00;;;;;;;;;;;;;;;;;;5013622;28;19917;-82
2022/01/31 13:36:26;;;;;;;;;;;;;;;;;;4994115;28;20653;-81
2022/01/31 13:38:51;;;;;;;;;;;;;;;;;;4997379;28;19961;-83
2022/01/31 13:41:19;;;;;;;;;;;;;;;;;;5010141;28;19933;-81
2022/01/31 13:43:47;;;;;;;;;;;;;;;;;;5035908;28;19917;-81
2022/01/31 13:51:31;;;;;;;;;;;;;;;;;;5039029;28;19984;-81
2022/01/31 13:53:56;;;;;;;;;;;;;;;;;;5039411;28;19917;-83
2022/01/31 13:56:21;;;;;;;;;;;;;;;;;;5034861;28;19917;-84
2022/01/31 13:58:46;;;;;;;;;;;;;;;;;;5033756;28;19986;-82
2022/01/31 14:01:11;;;;;;;;;;;;;;;;;;5030078;28;19970;-82
2022/01/31 14:03:36;;;;;;;;;;;;;;;;;;4998881;28;19939;-82
2022/01/31 14:06:01;;;;;;;;;;;;;;;;;;5018010;28;20075;-83
2022/01/31 14:08:27;;;;;;;;;;;;;;;;;;5029760;28;19996;-84
2022/01/31 14:10:53;;;;;;;;;;;;;;;;;;5033260;28;19928;-82
2022/01/31 14:13:18;;;;;;;;;;;;;;;;;;5017007;28;19936;-82
2022/01/31 14:15:45;;;;;;;;;;;;;;;;;;5041985;28;19916;-83
2022/01/31 14:18:11;;;;;;;;;;;;;;;;;;5036348;28;19917;-81
2022/01/31 14:20:36;;;;;;;;;;;;;;;;;;5042209;28;19917;-83
2022/01/31 14:23:03;;;;;;;;;;;;;;;;;;5041928;28;19916;-82
2022/01/31 14:25:28;;;;;;;;;;;;;;;;;;5043564;28;19924;-82
2022/01/31 14:27:53;;;;;;;;;;;;;;;;;;5038475;28;19913;-83
2022/01/31 14:30:18;;;;;;;;;;;;;;;;;;5024023;28;19940;-82
2022/01/31 14:32:43;;;;;;;;;;;;;;;;;;5046364;28;19949;-82
2022/01/31 14:35:11;;;;;;;;;;;;;;;;;;5044614;28;20304;-82
2022/01/31 14:37:36;;;;;;;;;;;;;;;;;;5040252;28;19916;-82
2022/01/31 14:40:18;;;;;;;;;;;;;;;;;;5040976;28;19935;-83
2022/01/31 14:42:50;;;;;;;;;;;;;;;;;;5044317;28;19977;-82
2022/01/31 14:47:59;;;;;;;;;;;;;;;;;;5041312;28;19963;-82
2022/01/31 14:50:24;;;;;;;;;;;;;;;;;;5041665;28;19913;-82
2022/01/31 14:52:49;;;;;;;;;;;;;;;;;;5046632;28;19909;-84
2022/01/31 14:55:16;;;;;;;;;;;;;;;;;;5043431;28;20371;-83
2022/01/31 14:57:42;;;;;;;;;;;;;;;;;;5048016;28;19909;-83
2022/01/31 15:00:07;;;;;;;;;;;;;;;;;;5044378;28;19940;-81
2022/01/31 15:02:32;;;;;;;;;;;;;;;;;;5039008;28;19924;-83
2022/01/31 15:04:57;;;;;;;;;;;;;;;;;;5022054;28;19928;-84
2022/01/31 15:07:22;;;;;;;;;;;;;;;;;;5039833;28;19924;-84
2022/01/31 15:09:48;;;;;;;;;;;;;;;;;;5038296;28;19917;-83
2022/01/31 15:12:13;;;;;;;;;;;;;;;;;;5043199;28;19917;-80
2022/01/31 15:14:38;;;;;;;;;;;;;;;;;;5039559;28;19925;-81
2022/01/31 15:17:06;;;;;;;;;;;;;;;;;;5040359;28;19917;-82
2022/01/31 15:19:31;;;;;;;;;;;;;;;;;;5039095;28;19908;-82
2022/01/31 15:21:56;;;;;;;;;;;;;;;;;;5037197;28;19909;-82
2022/01/31 15:24:21;;;;;;;;;;;;;;;;;;5043224;28;19913;-82
2022/01/31 15:26:46;;;;;;;;;;;;;;;;;;5047036;28;19912;-81
2022/01/31 15:29:11;;;;;;;;;;;;;;;;;;5051626;28;19920;-82
2022/01/31 15:31:37;;;;;;;;;;;;;;;;;;5049619;28;19921;-83
2022/01/31 15:34:02;;;;;;;;;;;;;;;;;;5054794;28;19909;-83
2022/01/31 15:36:27;;;;;;;;;;;;;;;;;;5050608;28;19909;-82
2022/01/31 15:38:53;;;;;;;;;;;;;;;;;;5051950;28;19916;-82
2022/01/31 15:41:18;;;;;;;;;;;;;;;;;;5042759;28;19909;-84
2022/01/31 15:43:43;;;;;;;;;;;;;;;;;;5038525;28;19909;-81
2022/01/31 15:46:09;;;;;;;;;;;;;;;;;;5048364;28;20008;-83
2022/01/31 15:48:34;;;;;;;;;;;;;;;;;;5047065;28;19909;-83
2022/01/31 15:50:59;;;;;;;;;;;;;;;;;;5054357;28;19935;-82
2022/01/31 15:53:24;;;;;;;;;;;;;;;;;;5044421;28;19932;-83
2022/01/31 15:55:49;;;;;;;;;;;;;;;;;;5046411;28;19916;-82
2022/01/31 15:58:15;;;;;;;;;;;;;;;;;;5048136;28;19908;-83
2022/01/31 16:00:41;;;;;;;;;;;;;;;;;;5046198;28;19913;-83
2022/01/31 16:03:07;;;;;;;;;;;;;;;;;;5047250;28;19932;-83
2022/01/31 16:05:32;;;;;;;;;;;;;;;;;;5048372;28;19909;-83
2022/01/31 16:07:57;;;;;;;;;;;;;;;;;;5048419;28;19994;-84
2022/01/31 16:10:22;;;;;;;;;;;;;;;;;;5048801;28;19916;-83
2022/01/31 16:12:48;;;;;;;;;;;;;;;;;;5048016;28;19973;-83
2022/01/31 16:15:15;;;;;;;;;;;;;;;;;;5049012;28;19917;-83
2022/01/31 16:17:40;;;;;;;;;;;;;;;;;;5049906;28;19949;-84
2022/01/31 16:20:05;;;;;;;;;;;;;;;;;;5050647;28;19909;-82
2022/01/31 16:22:30;;;;;;;;;;;;;;;;;;5049458;28;19916;-83
2022/01/31 16:24:55;;;;;;;;;;;;;;;;;;5050852;28;19916;-82
2022/01/31 16:27:23;;;;;;;;;;;;;;;;;;5054189;28;19916;-84
2022/01/31 16:29:50;;;;;;;;;;;;;;;;;;5053585;28;19992;-82
2022/01/31 16:32:15;;;;;;;;;;;;;;;;;;5047925;28;19932;-84
2022/01/31 16:34:40;;;;;;;;;;;;;;;;;;5049255;28;19920;-84
2022/01/31 16:37:05;;;;;;;;;;;;;;;;;;5040263;28;19908;-83
2022/01/31 16:39:30;;;;;;;;;;;;;;;;;;5053518;28;19909;-83
2022/01/31 16:41:55;;;;;;;;;;;;;;;;;;5052577;28;19920;-84
2022/01/31 16:44:21;;;;;;;;;;;;;;;;;;5046800;28;19909;-83
2022/01/31 16:46:47;;;;;;;;;;;;;;;;;;5054225;28;19969;-83
2022/01/31 16:49:12;;;;;;;;;;;;;;;;;;5053471;28;19916;-83
2022/01/31 16:51:39;;;;;;;;;;;;;;;;;;5055012;28;20345;-84
2022/01/31 16:54:04;;;;;;;;;;;;;;;;;;5035678;28;19905;-83
2022/01/31 16:56:29;;;;;;;;;;;;;;;;;;5049228;28;19940;-83
2022/01/31 16:58:54;;;;;;;;;;;;;;;;;;5037620;28;19905;-83
2022/01/31 17:01:20;;;;;;;;;;;;;;;;;;5054876;28;19932;-83
2022/01/31 17:03:45;;;;;;;;;;;;;;;;;;5047330;28;19913;-82
2022/01/31 17:06:10;;;;;;;;;;;;;;;;;;5053275;28;19913;-83
2022/01/31 17:08:35;;;;;;;;;;;;;;;;;;5053845;28;19905;-84
2022/01/31 17:11:00;;;;;;;;;;;;;;;;;;5054082;28;19952;-83
2022/01/31 17:13:25;;;;;;;;;;;;;;;;;;5052976;28;19913;-81